Aérodrome :
LOGIN :

S'inscrire | Disclaimer

   EN    FR    IT 

 










Légende :    VFR   VFR Marginal   IFR   IFR Intensif   IFR Très Intensif
Visi : 
Plafond : 
>= 8 km
>= 3000ft
5 à 8 km
1000 à 3000 ft
1500m à 5 km
500 à 1000 ft
800 à 1500m
200 à 500 ft
< 800m
< 200 ft
Symboles :   Orages  Brouillard  Fortes neiges  Fortes précipitations  Vent > 20 kt
SIGMETs :   Divers  Orages  Givrage  Turbulence  Onde Orograph.  Cendres Volcan.







- Altitude de l'aérodrome : 33 ft
- Code IATA : MHZ


EGUN - RAF Mildenhall

DERNIER METAR :
  • 201856Z AUTO 00000KT 9000 BR CLR M02/M02 A3016 RMK AO2 SLP217 T10241024 .

METARs EXPIRÉS :
  • 201756Z AUTO 00000KT 9999 CLR M02/M02 A3015 RMK AO2 SLP214 T10191019 10056 21019 52021 .
  • 201656Z AUTO 32003KT 9999 FEW030 01/01 A3013 RMK AO2 SLP207 T00080008 $

Prévision TAF périmée.
Pas de NOTAMs connus pour ce terrain.



MET'MAP, la Météo Aéronautique d'un coup d'oeil ! - Copyright ORBIFLY Décembre 2007 - Disclaimer

ORBIFLY MET'MAP TEAM :

Programmation & Développement : Alexandra Zaïnal
Conception & Développement : Baudouin d'Aumeries
Co-Programmation & Développement : Marc-Olivier Méhu
Soutien technique & logistique : Manuel Goepfert

Contact : metmap@orbifly.com




SOURCES & CREDITS :

   NOAA